createdAt,value
2022-09-17T00:01:50.024Z,99.90
2022-09-17T00:06:55.197Z,99.90
2022-09-17T00:11:58.901Z,99.90
2022-09-17T00:17:02.652Z,99.90
2022-09-17T00:22:07.688Z,99.90
2022-09-17T00:27:11.349Z,99.90
2022-09-17T00:32:15.046Z,99.90
2022-09-17T00:37:20.401Z,99.90
2022-09-17T00:42:24.683Z,99.90
2022-09-17T00:47:32.954Z,99.90
2022-09-17T00:52:42.823Z,99.90
2022-09-17T00:57:47.598Z,99.90
2022-09-17T01:02:53.337Z,99.90
2022-09-17T01:08:10.235Z,99.90
2022-09-17T01:13:25.147Z,99.90
2022-09-17T01:18:39.862Z,99.90
2022-09-17T01:24:18.367Z,99.90
2022-09-17T01:29:36.683Z,99.90
2022-09-17T01:34:47.341Z,99.90
2022-09-17T01:40:00.891Z,99.90
2022-09-17T01:45:10.637Z,99.90
2022-09-17T01:50:21.115Z,99.90
2022-09-17T01:55:30.965Z,99.90
2022-09-17T02:00:35.027Z,99.90
2022-09-17T02:05:44.752Z,99.90
2022-09-17T02:10:53.799Z,99.90
2022-09-17T02:16:02.808Z,99.90
2022-09-17T02:21:13.002Z,99.90
2022-09-17T02:26:21.290Z,99.90
2022-09-17T02:31:25.361Z,99.90
2022-09-17T02:36:32.224Z,99.90
2022-09-17T02:41:47.685Z,99.90
2022-09-17T02:47:22.487Z,99.90
2022-09-17T02:52:41.002Z,99.90
2022-09-17T02:57:48.503Z,99.90
2022-09-17T03:02:58.641Z,99.90
2022-09-17T03:08:03.956Z,99.90
2022-09-17T03:13:08.055Z,99.90
2022-09-17T03:18:11.676Z,99.90
2022-09-17T03:23:16.931Z,99.90
2022-09-17T03:28:20.658Z,99.90
2022-09-17T03:33:24.597Z,99.90
2022-09-17T03:38:34.429Z,99.90
2022-09-17T03:43:39.835Z,99.90
2022-09-17T03:48:43.632Z,99.90
2022-09-17T03:53:48.814Z,99.90
2022-09-17T03:58:52.563Z,99.90
2022-09-17T04:03:56.336Z,99.90
2022-09-17T04:09:03.761Z,99.90
2022-09-17T04:14:07.436Z,99.90
2022-09-17T04:19:11.023Z,99.90
2022-09-17T04:24:16.239Z,99.90
2022-09-17T04:29:19.848Z,99.90
2022-09-17T04:34:23.457Z,99.90
2022-09-17T04:39:28.437Z,99.90
2022-09-17T04:44:32.100Z,99.90
2022-09-17T04:49:35.975Z,99.90
2022-09-17T04:54:40.995Z,99.90
2022-09-17T04:59:44.664Z,99.90
2022-09-17T05:04:48.412Z,99.90
2022-09-17T05:09:53.868Z,99.90
2022-09-17T05:14:57.596Z,99.90
2022-09-17T05:20:01.921Z,99.90
2022-09-17T05:25:07.738Z,99.90
2022-09-17T05:30:13.082Z,99.90
2022-09-17T05:35:16.882Z,99.90
2022-09-17T05:40:21.997Z,99.90
2022-09-17T05:45:25.810Z,99.90
2022-09-17T05:50:30.705Z,99.90
2022-09-17T05:55:36.205Z,99.90
2022-09-17T06:00:40.013Z,99.90
2022-09-17T06:05:43.649Z,99.90
2022-09-17T06:10:49.057Z,99.90
2022-09-17T06:15:53.668Z,99.90
2022-09-17T06:20:58.073Z,99.90
2022-09-17T06:26:03.650Z,99.90
2022-09-17T06:31:09.140Z,99.90
2022-09-17T06:36:14.573Z,99.90
2022-09-17T06:41:19.840Z,99.90
2022-09-17T06:46:23.761Z,99.90
2022-09-17T06:51:27.498Z,99.90
2022-09-17T06:56:34.396Z,99.90
2022-09-17T07:01:38.162Z,99.90
2022-09-17T07:06:44.172Z,99.90
2022-09-17T07:11:49.175Z,99.90
2022-09-17T07:16:54.400Z,99.90
2022-09-17T07:21:58.180Z,99.90
2022-09-17T07:27:03.206Z,99.90
2022-09-17T07:32:07.444Z,99.90
2022-09-17T07:37:11.066Z,99.90
2022-09-17T07:42:16.113Z,99.90
2022-09-17T07:47:20.055Z,99.90
2022-09-17T07:52:24.627Z,99.90
2022-09-17T07:57:29.683Z,99.90
2022-09-17T08:02:33.337Z,99.90
2022-09-17T08:07:37.113Z,99.90
2022-09-17T08:12:42.134Z,99.90
2022-09-17T08:17:46.158Z,99.90
2022-09-17T08:22:50.412Z,99.90
2022-09-17T08:27:56.986Z,99.90
2022-09-17T08:33:00.676Z,99.90
2022-09-17T08:38:04.367Z,99.90
2022-09-17T08:43:17.495Z,99.90
2022-09-17T08:48:21.330Z,99.90
2022-09-17T08:53:38.571Z,99.90
2022-09-17T08:58:58.662Z,99.90
2022-09-17T09:04:57.765Z,99.90
2022-09-17T09:10:12.646Z,99.90
2022-09-17T09:15:30.418Z,99.90
2022-09-17T09:20:45.167Z,99.90
2022-09-17T09:25:56.335Z,99.90
2022-09-17T09:31:12.172Z,99.90
2022-09-17T09:36:21.687Z,99.90
2022-09-17T09:41:30.209Z,99.90
2022-09-17T09:46:57.870Z,99.70
2022-09-17T09:52:14.488Z,99.90
2022-09-17T09:57:21.881Z,99.90
2022-09-17T10:02:27.233Z,99.90
2022-09-17T10:07:31.044Z,99.90
2022-09-17T10:12:34.677Z,99.90
2022-09-17T10:17:39.931Z,98.90
2022-09-17T10:22:45.548Z,97.60
2022-09-17T10:27:49.928Z,96.40
2022-09-17T10:33:17.460Z,95.80
2022-09-17T10:38:29.549Z,95.80
2022-09-17T10:43:33.446Z,95.70
2022-09-17T10:48:44.460Z,95.40
2022-09-17T10:54:16.157Z,96.70
2022-09-17T10:59:43.814Z,97.20
2022-09-17T11:04:56.318Z,97.90
2022-09-17T11:10:09.154Z,98.90
2022-09-17T11:15:29.485Z,99.90
2022-09-17T11:20:55.898Z,99.90
2022-09-17T11:26:02.529Z,99.80
2022-09-17T11:31:24.393Z,99.90
2022-09-17T11:36:35.462Z,99.90
2022-09-17T11:41:43.407Z,99.90
2022-09-17T11:46:50.854Z,99.90
2022-09-17T11:51:59.220Z,99.90
2022-09-17T11:57:11.058Z,99.90
2022-09-17T12:02:23.350Z,99.90
2022-09-17T12:07:36.807Z,99.90
2022-09-17T12:12:50.029Z,99.90
2022-09-17T12:18:30.478Z,99.90
2022-09-17T12:23:39.423Z,99.90
2022-09-17T12:28:53.443Z,99.90
2022-09-17T12:34:03.185Z,99.90
2022-09-17T12:39:46.587Z,99.90
2022-09-17T12:45:10.087Z,99.50
2022-09-17T12:50:21.565Z,99.10
2022-09-17T12:55:39.401Z,98.80
2022-09-17T13:00:47.174Z,98.70
2022-09-17T13:06:09.135Z,98.80
2022-09-17T13:11:41.247Z,98.20
2022-09-17T13:16:51.040Z,98.70
2022-09-17T13:21:56.191Z,99.10
2022-09-17T13:27:04.627Z,99.00
2022-09-17T13:32:08.278Z,99.50
2022-09-17T13:37:22.530Z,98.70
2022-09-17T13:42:29.886Z,98.80
2022-09-17T13:47:35.158Z,97.60
2022-09-17T13:52:44.406Z,96.60
2022-09-17T13:57:51.941Z,96.30
2022-09-17T14:02:55.917Z,95.10
2022-09-17T14:08:28.690Z,93.90
2022-09-17T14:13:46.609Z,94.00
2022-09-17T14:19:02.741Z,93.60
2022-09-17T14:24:21.982Z,95.10
2022-09-17T14:29:51.844Z,94.60
2022-09-17T14:34:57.180Z,94.10
2022-09-17T14:40:00.877Z,93.80
2022-09-17T14:45:14.080Z,94.20
2022-09-17T14:50:24.937Z,93.80
2022-09-17T14:55:31.390Z,93.70
2022-09-17T15:00:38.290Z,93.60
2022-09-17T15:05:50.937Z,93.70
2022-09-17T15:10:56.175Z,93.80
2022-09-17T15:16:04.924Z,94.00
2022-09-17T15:21:23.628Z,94.60
2022-09-17T15:26:34.666Z,94.30
2022-09-17T15:31:39.965Z,94.50
2022-09-17T15:37:04.809Z,94.60
2022-09-17T15:42:23.667Z,94.60
2022-09-17T15:47:53.523Z,94.60
2022-09-17T15:53:13.943Z,93.70
2022-09-17T15:58:25.073Z,94.40
2022-09-17T16:04:17.818Z,94.40
2022-09-17T16:09:51.758Z,92.90
2022-09-17T16:14:57.187Z,92.70
2022-09-17T16:20:08.884Z,91.80
2022-09-17T16:25:12.864Z,92.20
2022-09-17T16:30:18.680Z,92.30
2022-09-17T16:35:26.028Z,92.40
2022-09-17T16:40:29.746Z,92.30
2022-09-17T16:45:33.501Z,92.20
2022-09-17T16:50:41.228Z,92.40
2022-09-17T16:55:44.852Z,92.40
2022-09-17T17:00:48.787Z,92.70
2022-09-17T17:05:53.944Z,92.90
2022-09-17T17:10:57.721Z,93.30
2022-09-17T17:16:06.143Z,93.20
2022-09-17T17:21:12.946Z,93.70
2022-09-17T17:26:17.081Z,94.00
2022-09-17T17:31:20.836Z,94.30
2022-09-17T17:36:25.968Z,94.60
2022-09-17T17:41:29.814Z,94.70
2022-09-17T17:46:33.551Z,94.90
2022-09-17T17:51:38.567Z,95.30
2022-09-17T17:56:42.269Z,95.50
2022-09-17T18:01:46.098Z,96.00
2022-09-17T18:06:51.179Z,96.30
2022-09-17T18:11:55.110Z,96.90
2022-09-17T18:16:58.714Z,97.00
2022-09-17T18:22:04.025Z,97.40
2022-09-17T18:27:07.593Z,97.90
2022-09-17T18:32:11.271Z,98.00
2022-09-17T18:37:16.356Z,98.20
2022-09-17T18:42:20.443Z,98.70
2022-09-17T18:47:24.111Z,98.40
2022-09-17T18:52:29.203Z,98.70
2022-09-17T18:57:32.833Z,98.90
2022-09-17T19:02:36.498Z,99.10
2022-09-17T19:07:44.885Z,99.40
2022-09-17T19:12:49.984Z,99.20
2022-09-17T19:17:55.294Z,98.90
2022-09-17T19:23:00.423Z,99.80
2022-09-17T19:28:04.152Z,99.90
2022-09-17T19:33:07.792Z,99.90
2022-09-17T19:38:13.566Z,99.90
2022-09-17T19:43:17.197Z,99.90
2022-09-17T19:48:25.101Z,99.90
2022-09-17T19:53:30.392Z,99.90
2022-09-17T19:58:34.082Z,99.90
2022-09-17T20:03:39.666Z,99.90
2022-09-17T20:08:47.471Z,99.90
2022-09-17T20:13:51.306Z,99.90
2022-09-17T20:18:55.358Z,99.90
2022-09-17T20:24:00.618Z,99.90
2022-09-17T20:29:04.858Z,99.90
2022-09-17T20:34:08.508Z,99.90
2022-09-17T20:39:21.165Z,99.90
2022-09-17T20:44:26.095Z,99.90
2022-09-17T20:49:29.862Z,99.90
2022-09-17T20:54:35.222Z,99.90
2022-09-17T20:59:52.208Z,99.90
2022-09-17T21:04:55.727Z,99.90
2022-09-17T21:10:00.633Z,99.90
2022-09-17T21:15:04.567Z,99.90
2022-09-17T21:20:09.133Z,99.90
2022-09-17T21:25:14.137Z,99.90
2022-09-17T21:30:17.765Z,99.90
2022-09-17T21:35:21.603Z,99.90
2022-09-17T21:40:26.825Z,99.90
2022-09-17T21:45:30.457Z,99.90
2022-09-17T21:50:34.158Z,99.90
2022-09-17T21:55:39.282Z,99.90
2022-09-17T22:00:44.548Z,99.90
2022-09-17T22:05:48.527Z,99.90
2022-09-17T22:10:53.548Z,99.90
2022-09-17T22:15:58.510Z,99.90
2022-09-17T22:21:02.633Z,99.90
2022-09-17T22:26:08.656Z,99.90
2022-09-17T22:31:13.525Z,99.90
2022-09-17T22:36:19.789Z,99.90
2022-09-17T22:41:27.195Z,99.90
2022-09-17T22:46:32.626Z,99.90
2022-09-17T22:51:36.781Z,99.90
2022-09-17T22:56:42.252Z,99.90
2022-09-17T23:01:45.941Z,99.90
2022-09-17T23:06:49.665Z,99.90
2022-09-17T23:11:54.712Z,99.90
2022-09-17T23:16:58.336Z,99.90
2022-09-17T23:22:01.995Z,99.90
2022-09-17T23:27:07.229Z,99.90
2022-09-17T23:32:10.820Z,99.90
2022-09-17T23:37:14.453Z,99.90
2022-09-17T23:42:19.485Z,99.90
2022-09-17T23:47:23.096Z,99.90
2022-09-17T23:52:26.729Z,99.90
2022-09-17T23:57:31.796Z,99.90
